In Rescue
 
Open Full Screen Window  High Contrast Mode
Wind Gusting 16 knots
04
May 20, 2019 1:54 PM CDT
Weather Information
Wind Direction
  030 °
Wind Speed
  04 kt (5 mph)
Wind Gust
  16 kt (18 mph)
Altimeter
30.14 in
Visibility
10 SM
Temperature
13° C
55° F
Dewpoint
03° C
37° F
Humidity
51%
1hr Rain Fall
00.00 in.
24hr Rain Fall
00.00 in.
Sky Condition
Scattered @ 4,700 ft
VFR

METAR KACQ 201854Z AUTO 03004G16KT 10SM SCT047 13/03 A3014 RMK AO2

FAA Disclaimer: The data displayed is for advisory purposes only and is not to be used for flight planning or operations.